Rushville, OH (43150)

1:29 PM EDT on September 04, 2015 (GMT -0400)
Northern Lancaster Area | | Change Station
CLOSE
Current Station
Personal Weather Station
Location: Lancaster, OH
Elevation: 1000 ft
Nearby Weather Stations

Elev 1000 ft 39.76 °N, 82.57 °W | Updated 27 seconds ago

Partly Cloudy
Partly Cloudy
82.4 °F
Feels Like 89 °F
N
5.0
Wind Variable Wind from South
Gusts 7.0 mph

Today
High -- | Low -- °F
--% Chance of Precip.
Yesterday
High -- | Low -- °F
Precip. -- in
7:00 AM 7:56 PM
Waning Gibbous, 57% visible
Pressure 30.07 in
Visibility 10.0 miles
Clouds Clear
Heat Index 89 °F
Dew Point 75 °F
Humidity 78%
Rainfall 0.22 in
Snow Depth Not available.
UV 9 out of 12
Pollen 9.90 out of 12
Air Quality Not available.
Flu Activity Not available.
METAR KLHQ 041653Z AUTO 16006KT 10SM CLR 27/19 A3009 RMK AO2 SLP182 T02670194
Pressure 30.07 in
Visibility 10.0 miles
Clouds Clear
Heat Index 89 °F
Dew Point 75 °F
Humidity 78%
Rainfall 0.22 in
Snow Depth Not available.
UV 9 out of 12
Pollen 9.90 out of 12
Air Quality Not available.
Flu Activity Not available.
METAR KLHQ 041653Z AUTO 16006KT 10SM CLR 27/19 A3009 RMK AO2 SLP182 T02670194

10-Day Weather Forecast

×

Almanac

Astronomy

Sep. 04, 2015 Rise Set
Actual Time
Civil Twilight
Nautical Twilight
Astronomical Twilight
Moon
Length of Visible Light
Length of Day
Tomorrow will be .
, % of the Moon is Illuminated

Today's Extremes

State Highs State Lows

Community

WunderPhotos

Upload Photos

1,852,237 photos uploaded!

WunderBlogs® & News

Nearby

Air Quality

  Air Quality AQ Index Pollutant
Not available.

Snow Depth

Station Depth Elevation

Earthquake Activity

City Distance Mag. Time & Date
Minimum magnitude displayed is 2.5.

Coastal Water Temperatures

Place Temperature

Stations

Nearby Weather Stations

Station Location Temp. Windchill Dew Point Humidity Wind Precip. Elev Updated Type